White Point — IBAE — position and weather

sailwx.info

Track history (hours):
 
Tides and Currents Weather Stations Pressure Air Temp Water Temp Dewpoint Dewpoint Depression Visibility Wind Speed Wind Dir Waves Ship Positions

White Point

Last reported at 2017-Dec-15 17:29 UTC. Time now 2017-Dec-17 06:32 UTC.
Position N 39°42' E 018°10'.

Length 183 m; draft 1.1 m.

Type: Ship (hazmat cat D). MMSI: 247087400.

Date/timePositionNaut miles runAvg speedWind from/ knotsBaromVisibWave heightAir tempDewpointWater temp
2017-Dec-15 17:29N 39°42' E 018°10'9 9.9
2017-Dec-15 16:33N 39°47' E 017°60'0 9.9
2017-Dec-15 16:30N 39°47' E 017°59'710.6
2017-Dec-15 15:51N 39°51' E 017°52'410.8
2017-Dec-15 15:30N 39°54' E 017°48'611.2
2017-Dec-15 15:00N 39°57' E 017°43'611.3
2017-Dec-15 14:30N 40°01' E 017°37'611.2
2017-Dec-15 14:00N 40°05' E 017°32'611.1
2017-Dec-15 13:30N 40°08' E 017°26'611.3
2017-Dec-15 13:00N 40°12' E 017°21'611.4
2017-Dec-15 12:30N 40°16' E 017°15'611.4
2017-Dec-15 12:00N 40°20' E 017°10'510.4
2017-Dec-15 11:30N 40°25' E 017°08'4 7.8
2017-Dec-15 11:00N 40°28' E 017°12'0 0.2
2017-Dec-15 10:30N 40°28' E 017°12'0 0.0
2017-Dec-15 10:00N 40°28' E 017°12'0 0.0
2017-Dec-15 09:27N 40°28' E 017°12'0 0.0
2017-Dec-15 08:57N 40°28' E 017°12'0 0.0
2017-Dec-15 08:30N 40°28' E 017°12'0 0.0
2017-Dec-15 08:00N 40°28' E 017°12'0 0.0
2017-Dec-15 07:27N 40°28' E 017°12'0 0.0
2017-Dec-15 07:00N 40°28' E 017°12'0 0.0
2017-Dec-15 06:27N 40°28' E 017°12'0 0.0
2017-Dec-15 05:57N 40°28' E 017°12'0 0.0
2017-Dec-15 05:27N 40°28' E 017°12'0 0.0
2017-Dec-15 05:00N 40°28' E 017°12'0 0.0
2017-Dec-15 04:30N 40°28' E 017°12'0 0.0
2017-Dec-15 04:00N 40°28' E 017°12'0 0.0
2017-Dec-15 02:30N 40°28' E 017°12'0 0.0
2017-Dec-15 01:00N 40°28' E 017°12'0 0.0
2017-Dec-15 00:30N 40°28' E 017°12'0 0.0
2017-Dec-14 18:27N 40°28' E 017°12'0 0.1
2017-Dec-14 17:57N 40°28' E 017°12'0 0.0
2017-Dec-14 17:27N 40°28' E 017°12'1 1.3
2017-Dec-14 17:00N 40°28' E 017°12'0 0.3
2017-Dec-14 16:22N 40°28' E 017°12'0 0.0
2017-Dec-14 15:58N 40°28' E 017°12'0 0.0
2017-Dec-14 14:52N 40°28' E 017°12'0 0.0
2017-Dec-14 14:28N 40°28' E 017°12'0 0.0
2017-Dec-14 13:52N 40°28' E 017°12'0 0.0
2017-Dec-14 13:28N 40°28' E 017°12'0 0.0
2017-Dec-14 12:46N 40°28' E 017°12'0 0.0
2017-Dec-14 12:04N 40°28' E 017°12'0 0.0
2017-Dec-14 11:58N 40°28' E 017°12'0 0.0
2017-Dec-14 11:10N 40°28' E 017°12'0 0.0
2017-Dec-14 10:28N 40°28' E 017°12'0 0.0
2017-Dec-14 09:58N 40°28' E 017°12'0 0.0
2017-Dec-14 08:34N 40°28' E 017°12'0 0.0
2017-Dec-14 08:28N 40°28' E 017°12'0 0.0
2017-Dec-14 07:52N 40°28' E 017°12'0 0.0
2017-Dec-14 07:22N 40°28' E 017°12'0 0.0
2017-Dec-14 06:58N 40°28' E 017°12'0 0.0
2017-Dec-14 06:22N 40°28' E 017°12'0 0.0
2017-Dec-14 05:58N 40°28' E 017°12'0 0.0
2017-Dec-14 05:28N 40°28' E 017°12'0 0.0
2017-Dec-14 04:52N 40°28' E 017°12'0 0.0
2017-Dec-14 04:28N 40°28' E 017°12'0 0.0
2017-Dec-14 03:58N 40°28' E 017°12'0 0.0
2017-Dec-14 03:28N 40°28' E 017°12'0 0.0
2017-Dec-14 02:58N 40°28' E 017°12'0 0.0
2017-Dec-14 02:28N 40°28' E 017°12'0 0.0
2017-Dec-14 01:58N 40°28' E 017°12'0 0.0
2017-Dec-14 01:28N 40°28' E 017°12'0 0.0
2017-Dec-14 00:58N 40°28' E 017°12'0 0.0
2017-Dec-14 00:28N 40°28' E 017°12'0 0.0
2017-Dec-13 23:52N 40°28' E 017°12'0 0.0
2017-Dec-13 23:28N 40°28' E 017°12'0 0.0
2017-Dec-13 22:52N 40°28' E 017°12'0 0.0
2017-Dec-13 22:28N 40°28' E 017°12'0 0.0
2017-Dec-13 21:58N 40°28' E 017°12'0 0.0
2017-Dec-13 21:22N 40°28' E 017°12'0 0.0
2017-Dec-13 20:58N 40°28' E 017°12'0 0.0
2017-Dec-13 20:28N 40°28' E 017°12'0 0.0
2017-Dec-13 19:58N 40°28' E 017°12'0 0.0
2017-Dec-13 19:28N 40°28' E 017°12'0 0.0
2017-Dec-13 18:58N 40°28' E 017°12'0 0.0
2017-Dec-13 18:28N 40°28' E 017°12'0 0.0
2017-Dec-13 17:58N 40°28' E 017°12'0 0.0
2017-Dec-13 17:28N 40°28' E 017°12'0 0.0
2017-Dec-13 16:58N 40°28' E 017°12'0 0.0
2017-Dec-13 16:28N 40°28' E 017°12'0 0.0
2017-Dec-13 15:58N 40°28' E 017°12'0 0.0
2017-Dec-13 15:28N 40°28' E 017°12'0 0.0
2017-Dec-13 14:58N 40°28' E 017°12'0 0.0
2017-Dec-13 14:28N 40°28' E 017°12'0 0.0
2017-Dec-13 13:58N 40°28' E 017°12'0 0.0
2017-Dec-13 13:28N 40°28' E 017°12'0 0.0
2017-Dec-13 12:58N 40°28' E 017°12'0 0.0
2017-Dec-13 12:28N 40°28' E 017°12'0 0.9
2017-Dec-13 12:00N 40°28' E 017°12'1 2.2
2017-Dec-13 11:27N 40°27' E 017°11'0 0.0
2017-Dec-13 11:00N 40°27' E 017°11'0 0.1
2017-Dec-13 10:27N 40°27' E 017°11'0 0.1
2017-Dec-13 09:58N 40°27' E 017°11'0 0.1
2017-Dec-13 09:30N 40°27' E 017°11'0 0.0
2017-Dec-13 08:57N 40°27' E 017°11'0 0.0
2017-Dec-13 08:27N 40°27' E 017°11'0 0.0
2017-Dec-13 08:00N 40°27' E 017°11'0 0.0
2017-Dec-13 07:30N 40°27' E 017°11'0 0.1
2017-Dec-13 07:00N 40°27' E 017°11'0 0.0
2017-Dec-13 06:30N 40°27' E 017°11'0 0.0
2017-Dec-13 06:00N 40°27' E 017°11'0 0.0
2017-Dec-13 05:30N 40°27' E 017°11'0 0.1
2017-Dec-13 05:00N 40°27' E 017°11'0 0.1
2017-Dec-13 04:31N 40°27' E 017°11'0 0.0
2017-Dec-13 04:00N 40°27' E 017°11'0 0.0
2017-Dec-13 03:30N 40°27' E 017°11'0 0.0
2017-Dec-13 03:00N 40°27' E 017°11'0 0.0
2017-Dec-13 02:30N 40°27' E 017°11'0 0.0
2017-Dec-13 02:00N 40°27' E 017°11'0 0.0
2017-Dec-13 01:30N 40°27' E 017°11'0 0.0
2017-Dec-13 01:00N 40°27' E 017°11'0 0.1
2017-Dec-13 00:30N 40°27' E 017°11'0 0.0
2017-Dec-13 00:00N 40°27' E 017°11'0 0.0
2017-Dec-12 23:30N 40°27' E 017°11'0 0.0
2017-Dec-12 23:00N 40°27' E 017°11'0 0.1
2017-Dec-12 22:30N 40°27' E 017°11'0 0.1
2017-Dec-12 22:00N 40°27' E 017°11'0 0.0
2017-Dec-12 21:30N 40°27' E 017°11'0 0.1
2017-Dec-12 21:00N 40°27' E 017°11'0 0.1
2017-Dec-12 20:30N 40°27' E 017°11'0 0.0
2017-Dec-12 19:57N 40°27' E 017°11'0 0.0
2017-Dec-12 19:30N 40°27' E 017°11'0 0.1
2017-Dec-12 19:00N 40°27' E 017°11'0 0.0
2017-Dec-12 18:30N 40°27' E 017°11'0 0.0
2017-Dec-12 18:00N 40°27' E 017°11'0 0.0
2017-Dec-12 17:30N 40°27' E 017°11'0 0.0
2017-Dec-12 16:57N 40°27' E 017°11'0 0.0
2017-Dec-12 16:27N 40°27' E 017°11'0 0.0
2017-Dec-12 16:00N 40°27' E 017°11'0 0.0
2017-Dec-12 15:27N 40°27' E 017°11'0 0.0
2017-Dec-12 14:57N 40°27' E 017°11'0 0.0
2017-Dec-12 14:30N 40°27' E 017°11'0 0.0
2017-Dec-12 14:00N 40°27' E 017°11'0 0.0
2017-Dec-12 13:30N 40°27' E 017°11'0 0.0
2017-Dec-12 13:00N 40°27' E 017°11'0 0.0
2017-Dec-12 12:31N 40°27' E 017°11'0 0.0
2017-Dec-12 12:00N 40°27' E 017°11'0 0.0
2017-Dec-12 11:31N 40°27' E 017°11'0 0.0
2017-Dec-12 11:00N 40°27' E 017°11'0 0.0
2017-Dec-12 10:27N 40°27' E 017°11'0 0.0
2017-Dec-12 10:00N 40°27' E 017°11'0 0.0
2017-Dec-12 09:28N 40°27' E 017°11'0 0.0
2017-Dec-12 09:00N 40°27' E 017°11'0 0.0
2017-Dec-12 08:30N 40°27' E 017°11'0 0.0
2017-Dec-12 07:57N 40°27' E 017°11'0 0.0
2017-Dec-12 07:27N 40°27' E 017°11'0 0.0
2017-Dec-12 07:00N 40°27' E 017°11'0 0.0
2017-Dec-12 06:30N 40°27' E 017°11'0 0.0
2017-Dec-12 06:00N 40°27' E 017°11'0 0.0
2017-Dec-12 05:30N 40°27' E 017°11'0 0.0
2017-Dec-12 05:00N 40°27' E 017°11'0 0.0
2017-Dec-12 04:30N 40°27' E 017°11'0 0.0
2017-Dec-12 04:00N 40°27' E 017°11'0 0.0
2017-Dec-12 03:30N 40°27' E 017°11'0 0.0
2017-Dec-12 03:00N 40°27' E 017°11'0 0.0
2017-Dec-12 02:30N 40°27' E 017°11'0 0.0
2017-Dec-12 02:00N 40°27' E 017°11'0 0.0
2017-Dec-12 01:30N 40°27' E 017°11'0 0.0
2017-Dec-12 01:00N 40°27' E 017°11'0 0.0
2017-Dec-12 00:30N 40°27' E 017°11'0 0.0
2017-Dec-12 00:00N 40°27' E 017°11'0 0.0
2017-Dec-11 23:30N 40°27' E 017°11'0 0.0
2017-Dec-11 23:00N 40°27' E 017°11'0 0.0
2017-Dec-11 22:30N 40°27' E 017°11'0 0.0
2017-Dec-11 22:00N 40°27' E 017°11'0 0.0
2017-Dec-11 21:30N 40°27' E 017°11'0 0.0
2017-Dec-11 21:00N 40°27' E 017°11'0 0.0
2017-Dec-11 20:30N 40°27' E 017°11'0 0.0
2017-Dec-11 20:00N 40°27' E 017°11'0 0.0
2017-Dec-11 19:30N 40°27' E 017°11'0 0.0
2017-Dec-11 19:00N 40°27' E 017°11'0 0.0
2017-Dec-11 18:30N 40°27' E 017°11'0 0.0
2017-Dec-11 18:00N 40°27' E 017°11'0 0.0
2017-Dec-11 17:30N 40°27' E 017°11'0 0.0
2017-Dec-11 17:00N 40°27' E 017°11'0 0.0
2017-Dec-11 16:30N 40°27' E 017°11'0 0.0
2017-Dec-11 16:00N 40°27' E 017°11'0 0.0
2017-Dec-11 15:30N 40°27' E 017°11'0 0.0
2017-Dec-11 15:00N 40°27' E 017°11'0 0.0
2017-Dec-11 14:30N 40°27' E 017°11'0 0.0
2017-Dec-11 14:00N 40°27' E 017°11'0 0.0
2017-Dec-11 13:30N 40°27' E 017°11'0 0.0
2017-Dec-11 13:00N 40°27' E 017°11'0 0.0
2017-Dec-11 12:30N 40°27' E 017°11'0 0.0
2017-Dec-11 12:00N 40°27' E 017°11'0 0.0
2017-Dec-11 11:30N 40°27' E 017°11'0 0.0
2017-Dec-11 11:00N 40°27' E 017°11'0 0.0
2017-Dec-11 10:30N 40°27' E 017°11'0 0.0
2017-Dec-11 10:00N 40°27' E 017°11'0 0.0
2017-Dec-11 09:30N 40°27' E 017°11'0 0.0
2017-Dec-11 09:00N 40°27' E 017°11'0 0.0
2017-Dec-11 08:30N 40°27' E 017°11'0 0.0
2017-Dec-11 08:00N 40°27' E 017°11'0 0.0
2017-Dec-11 07:30N 40°27' E 017°11'0 0.0
2017-Dec-11 06:57N 40°27' E 017°11'0 0.0
2017-Dec-11 06:30N 40°27' E 017°11'0 0.0
2017-Dec-11 06:00N 40°27' E 017°11'0 0.0
2017-Dec-11 05:30N 40°27' E 017°11'0 0.0
2017-Dec-11 05:00N 40°27' E 017°11'0 0.0
2017-Dec-11 04:30N 40°27' E 017°11'0 0.0
2017-Dec-11 04:00N 40°27' E 017°11'0 0.0
2017-Dec-11 03:30N 40°27' E 017°11'0 0.0
2017-Dec-11 03:00N 40°27' E 017°11'0 0.0
2017-Dec-11 02:30N 40°27' E 017°11'0 0.0
2017-Dec-11 02:00N 40°27' E 017°11'0 0.0
2017-Dec-11 01:30N 40°27' E 017°11'0 0.0
2017-Dec-11 01:00N 40°27' E 017°11'0 0.0
2017-Dec-11 00:30N 40°27' E 017°11'0 0.0
2017-Dec-11 00:00N 40°27' E 017°11'0 0.0
2017-Dec-10 23:30N 40°27' E 017°11'0 0.0
2017-Dec-10 23:00N 40°27' E 017°11'0 0.0
2017-Dec-10 22:30N 40°27' E 017°11'0 0.0
2017-Dec-10 22:00N 40°27' E 017°11'0 0.0
2017-Dec-10 21:30N 40°27' E 017°11'0 0.0
2017-Dec-10 21:00N 40°27' E 017°11'0 0.0
2017-Dec-10 20:30N 40°27' E 017°11'0 0.0
2017-Dec-10 20:00N 40°27' E 017°11'0 0.0
2017-Dec-10 19:30N 40°27' E 017°11'0 0.0
2017-Dec-10 18:58N 40°27' E 017°11'0 0.0
2017-Dec-10 18:27N 40°27' E 017°11'0 0.1
2017-Dec-10 18:00N 40°27' E 017°11'0 0.1
2017-Dec-10 17:30N 40°27' E 017°11'0 0.0
2017-Dec-10 17:00N 40°27' E 017°11'0 0.0
2017-Dec-10 16:30N 40°27' E 017°11'0 0.1
2017-Dec-10 16:00N 40°27' E 017°11'0 0.0
2017-Dec-10 15:30N 40°27' E 017°11'0 0.0
2017-Dec-10 14:57N 40°27' E 017°11'0 0.0
2017-Dec-10 14:30N 40°27' E 017°11'0 0.0
2017-Dec-10 14:01N 40°27' E 017°11'0 0.0
2017-Dec-10 13:28N 40°27' E 017°11'0 0.1
2017-Dec-10 13:00N 40°27' E 017°11'0 0.0
2017-Dec-10 12:30N 40°27' E 017°11'0 0.0
2017-Dec-10 12:00N 40°27' E 017°11'0 0.0
2017-Dec-10 11:27N 40°27' E 017°11'0 0.0
2017-Dec-10 11:00N 40°27' E 017°11'0 0.1
2017-Dec-10 10:27N 40°27' E 017°11'0 0.0
2017-Dec-10 09:57N 40°27' E 017°11'0 0.1
2017-Dec-10 09:30N 40°27' E 017°11'0 0.0
2017-Dec-10 08:57N 40°27' E 017°11'0 0.0
2017-Dec-10 08:27N 40°27' E 017°11'0 0.0
2017-Dec-10 07:57N 40°27' E 017°11'0 0.0
2017-Dec-10 07:30N 40°27' E 017°11'0 0.0
2017-Dec-10 07:00N 40°27' E 017°11'0 0.0
2017-Dec-10 06:30N 40°27' E 017°11'0 0.0
2017-Dec-10 06:00N 40°27' E 017°11'0 0.0
2017-Dec-10 05:30N 40°27' E 017°11'0 0.1
2017-Dec-10 05:00N 40°27' E 017°11'0 0.0
2017-Dec-10 04:30N 40°27' E 017°11'0 0.0
2017-Dec-10 04:00N 40°27' E 017°11'0 0.0
2017-Dec-10 03:30N 40°27' E 017°11'0 0.0
2017-Dec-10 03:00N 40°27' E 017°11'0 0.1
2017-Dec-10 02:30N 40°27' E 017°11'0 0.1
2017-Dec-10 02:00N 40°27' E 017°11'0 0.0
2017-Dec-10 01:30N 40°27' E 017°11'0 0.0
2017-Dec-10 01:00N 40°27' E 017°11'0 0.0
2017-Dec-10 00:30N 40°27' E 017°11'0 0.0
2017-Dec-10 00:00N 40°27' E 017°11'0 0.0
2017-Dec-09 23:30N 40°27' E 017°11'0 0.0
2017-Dec-09 23:00N 40°27' E 017°11'0 0.0
2017-Dec-09 22:27N 40°27' E 017°11'0 0.0
2017-Dec-09 22:00N 40°27' E 017°11'0 0.0
2017-Dec-09 21:30N 40°27' E 017°11'0 0.0
2017-Dec-09 21:00N 40°27' E 017°11'0 0.1
2017-Dec-09 20:30N 40°27' E 017°11'0 0.1
2017-Dec-09 20:00N 40°27' E 017°11'0 0.0
2017-Dec-09 19:30N 40°27' E 017°11'0 0.0
2017-Dec-09 19:00N 40°27' E 017°11'0 0.0
2017-Dec-09 18:30N 40°27' E 017°11'0 0.1
2017-Dec-09 18:00N 40°27' E 017°11'0 0.0
2017-Dec-09 17:27N 40°27' E 017°11'0 0.2
2017-Dec-09 16:57N 40°27' E 017°11'0 0.1
2017-Dec-09 16:30N 40°27' E 017°11'0 0.0
2017-Dec-09 16:00N 40°27' E 017°11'0 0.0
2017-Dec-09 15:30N 40°27' E 017°11'0 0.0
2017-Dec-09 15:00N 40°27' E 017°11'0 0.0
2017-Dec-09 14:30N 40°27' E 017°11'0 0.0
2017-Dec-09 14:00N 40°27' E 017°11'0 0.0
2017-Dec-09 13:30N 40°27' E 017°11'0 0.0
2017-Dec-09 13:00N 40°27' E 017°11'0 0.0
2017-Dec-09 12:30N 40°27' E 017°11'0 0.0
2017-Dec-09 12:00N 40°27' E 017°11'0 0.0
2017-Dec-09 11:30N 40°27' E 017°11'0 0.0
2017-Dec-09 11:00N 40°27' E 017°11'0 0.0
2017-Dec-09 10:30N 40°27' E 017°11'0 0.0
2017-Dec-09 09:57N 40°27' E 017°11'0 0.0
2017-Dec-09 09:30N 40°27' E 017°11'0 0.0
2017-Dec-09 08:57N 40°27' E 017°11'0 0.0
2017-Dec-09 08:27N 40°27' E 017°11'0 0.0
2017-Dec-09 08:00N 40°27' E 017°11'0 0.0
2017-Dec-09 07:30N 40°27' E 017°11'0 0.0
2017-Dec-09 07:00N 40°27' E 017°11'0 0.0
2017-Dec-09 06:31N 40°27' E 017°11'0 0.0
2017-Dec-09 06:00N 40°27' E 017°11'0 0.0
2017-Dec-09 05:30N 40°27' E 017°11'0 0.1
2017-Dec-09 05:00N 40°27' E 017°11'0 0.1
2017-Dec-09 04:30N 40°27' E 017°11'0 0.0
2017-Dec-09 04:00N 40°27' E 017°11'0 0.0
2017-Dec-09 03:30N 40°27' E 017°11'0 0.0
2017-Dec-09 03:00N 40°27' E 017°11'0 0.0
2017-Dec-09 02:30N 40°27' E 017°11'0 0.0
2017-Dec-09 02:00N 40°27' E 017°11'0 0.0
2017-Dec-09 01:30N 40°27' E 017°11'0 0.0
2017-Dec-09 01:00N 40°27' E 017°11'0 0.0
2017-Dec-09 00:30N 40°27' E 017°11'0 0.0
2017-Dec-09 00:00N 40°27' E 017°11'0 0.0
2017-Dec-08 23:30N 40°27' E 017°11'0 0.2
2017-Dec-08 23:01N 40°27' E 017°11'2 2.8
2017-Dec-08 22:25N 40°28' E 017°12'0 0.0
2017-Dec-08 21:55N 40°28' E 017°12'0 0.0
2017-Dec-08 21:25N 40°28' E 017°12'0 0.0
2017-Dec-08 20:49N 40°28' E 017°12'0 0.0
2017-Dec-08 20:25N 40°28' E 017°12'0 0.0
2017-Dec-08 19:55N 40°28' E 017°12'0 0.0
2017-Dec-08 19:25N 40°28' E 017°12'0 0.0
2017-Dec-08 18:55N 40°28' E 017°12'0 0.0
2017-Dec-08 16:01N 40°28' E 017°12'0 0.0
2017-Dec-08 11:19N 40°28' E 017°12'0 0.0
2017-Dec-08 10:55N 40°28' E 017°12'0 0.0
2017-Dec-08 10:25N 40°28' E 017°12'0 0.0
2017-Dec-08 09:49N 40°28' E 017°12'0 0.0
2017-Dec-08 09:31N 40°28' E 017°12'1 1.4
2017-Dec-08 09:01N 40°28' E 017°12'0 0.4
2017-Dec-08 08:29N 40°28' E 017°12'0 0.0
2017-Dec-08 07:59N 40°28' E 017°12'0 0.1
2017-Dec-08 07:29N 40°28' E 017°12'0 0.0
2017-Dec-08 06:56N 40°28' E 017°12'0 0.1
2017-Dec-08 06:29N 40°28' E 017°12'0 0.0
2017-Dec-08 05:59N 40°28' E 017°12'0 0.0
2017-Dec-08 05:29N 40°28' E 017°12'0 0.0
2017-Dec-08 04:59N 40°28' E 017°12'0 0.0
2017-Dec-08 04:29N 40°28' E 017°12'0 0.1
2017-Dec-08 03:59N 40°28' E 017°12'0 0.0
2017-Dec-08 03:29N 40°28' E 017°12'0 0.0
2017-Dec-08 02:59N 40°28' E 017°12'0 0.1
2017-Dec-08 02:29N 40°28' E 017°12'0 0.0
2017-Dec-08 01:59N 40°28' E 017°12'0 0.0
2017-Dec-08 01:23N 40°28' E 017°12'0 0.0
2017-Dec-08 00:59N 40°28' E 017°12'0 0.0
2017-Dec-08 00:29N 40°28' E 017°12'0 0.0
2017-Dec-07 23:59N 40°28' E 017°12'0 0.0
2017-Dec-07 23:29N 40°28' E 017°12'0 0.1
2017-Dec-07 22:59N 40°28' E 017°12'0 0.0
2017-Dec-07 22:29N 40°28' E 017°12'0 0.0
2017-Dec-07 21:59N 40°28' E 017°12'0 0.0
2017-Dec-07 21:29N 40°28' E 017°12'0 0.0
2017-Dec-07 20:59N 40°28' E 017°12'0 0.1
2017-Dec-07 20:29N 40°28' E 017°12'0 0.0
2017-Dec-07 19:59N 40°28' E 017°12'0 0.0
2017-Dec-07 19:29N 40°28' E 017°12'0 0.0
2017-Dec-07 18:59N 40°28' E 017°12'0 0.0
2017-Dec-07 18:29N 40°28' E 017°12'0 0.0
2017-Dec-07 17:59N 40°28' E 017°12'0 0.0
2017-Dec-07 17:17N 40°28' E 017°12'0 0.0
2017-Dec-07 16:59N 40°28' E 017°12'0 0.1
2017-Dec-07 16:29N 40°28' E 017°12'0 0.0
2017-Dec-07 15:59N 40°28' E 017°12'0 0.0
2017-Dec-07 15:29N 40°28' E 017°12'0 0.1
2017-Dec-07 14:59N 40°28' E 017°12'0 0.1
2017-Dec-07 14:29N 40°28' E 017°12'0 0.0
2017-Dec-07 13:59N 40°28' E 017°12'0 0.0
2017-Dec-07 13:29N 40°28' E 017°12'0 0.0
2017-Dec-07 12:59N 40°28' E 017°12'0 0.0
2017-Dec-07 12:29N 40°28' E 017°12'0 0.0
2017-Dec-07 11:59N 40°28' E 017°12'0 0.0
2017-Dec-07 11:29N 40°28' E 017°12'0 0.1
2017-Dec-07 10:59N 40°28' E 017°12'0 0.1
2017-Dec-07 10:29N 40°28' E 017°12'0 0.0
2017-Dec-07 09:59N 40°28' E 017°12'0 0.1
2017-Dec-07 09:29N 40°28' E 017°12'0 0.1
2017-Dec-07 08:59N 40°28' E 017°12'0 0.1
2017-Dec-07 08:29N 40°28' E 017°12'0 0.1
2017-Dec-07 07:59N 40°28' E 017°12'0 0.0
2017-Dec-07 07:29N 40°28' E 017°12'0 0.1
2017-Dec-07 06:59N 40°28' E 017°12'0 0.0
2017-Dec-07 06:29N 40°28' E 017°12'0 0.0
2017-Dec-07 05:59N 40°28' E 017°12'0 0.0
2017-Dec-07 05:29N 40°28' E 017°12'0 0.1
2017-Dec-07 04:59N 40°28' E 017°12'0 0.0
2017-Dec-07 04:29N 40°28' E 017°12'0 0.1
2017-Dec-07 03:59N 40°28' E 017°12'0 0.1
2017-Dec-07 03:29N 40°28' E 017°12'0 0.0
2017-Dec-07 02:59N 40°28' E 017°12'0 0.0
2017-Dec-07 02:29N 40°28' E 017°12'0 0.1
2017-Dec-07 01:59N 40°28' E 017°12'0 0.0
2017-Dec-07 01:29N 40°28' E 017°12'0 0.1
2017-Dec-07 00:59N 40°28' E 017°12'0 0.0
2017-Dec-07 00:29N 40°28' E 017°12'0 0.1
2017-Dec-06 23:59N 40°28' E 017°12'0 0.0
2017-Dec-06 23:29N 40°28' E 017°12'0 0.0
2017-Dec-06 22:59N 40°28' E 017°12'0 0.1
2017-Dec-06 22:29N 40°28' E 017°12'0 0.0
2017-Dec-06 21:59N 40°28' E 017°12'0 0.0
2017-Dec-06 21:29N 40°28' E 017°12'0 0.0
2017-Dec-06 20:59N 40°28' E 017°12'  
Track history (hours):
 
Tides and Currents Weather Stations Pressure Air Temp Water Temp Dewpoint Dewpoint Depression Visibility Wind Speed Wind Dir Waves Ship Positions

White Point

Last reported at 2017-Dec-15 17:29 UTC. Time now 2017-Dec-17 06:32 UTC.
Position N 39°42' E 018°10'.

Length 183 m; draft 1.1 m.

Type: Ship (hazmat cat D). MMSI: 247087400.

Date/timePositionNaut miles runAvg speedWind from/ knotsBaromVisibWave heightAir tempDewpointWater temp
2017-Dec-15 17:29N 39°42' E 018°10'9 9.9
2017-Dec-15 16:33N 39°47' E 017°60'0 9.9
2017-Dec-15 16:30N 39°47' E 017°59'710.6
2017-Dec-15 15:51N 39°51' E 017°52'410.8
2017-Dec-15 15:30N 39°54' E 017°48'611.2
2017-Dec-15 15:00N 39°57' E 017°43'611.3
2017-Dec-15 14:30N 40°01' E 017°37'611.2
2017-Dec-15 14:00N 40°05' E 017°32'611.1
2017-Dec-15 13:30N 40°08' E 017°26'611.3
2017-Dec-15 13:00N 40°12' E 017°21'611.4
2017-Dec-15 12:30N 40°16' E 017°15'611.4
2017-Dec-15 12:00N 40°20' E 017°10'510.4
2017-Dec-15 11:30N 40°25' E 017°08'4 7.8
2017-Dec-15 11:00N 40°28' E 017°12'0 0.2
2017-Dec-15 10:30N 40°28' E 017°12'0 0.0
2017-Dec-15 10:00N 40°28' E 017°12'0 0.0
2017-Dec-15 09:27N 40°28' E 017°12'0 0.0
2017-Dec-15 08:57N 40°28' E 017°12'0 0.0
2017-Dec-15 08:30N 40°28' E 017°12'0 0.0
2017-Dec-15 08:00N 40°28' E 017°12'0 0.0
2017-Dec-15 07:27N 40°28' E 017°12'0 0.0
2017-Dec-15 07:00N 40°28' E 017°12'0 0.0
2017-Dec-15 06:27N 40°28' E 017°12'0 0.0
2017-Dec-15 05:57N 40°28' E 017°12'0 0.0
2017-Dec-15 05:27N 40°28' E 017°12'0 0.0
2017-Dec-15 05:00N 40°28' E 017°12'0 0.0
2017-Dec-15 04:30N 40°28' E 017°12'0 0.0
2017-Dec-15 04:00N 40°28' E 017°12'0 0.0
2017-Dec-15 02:30N 40°28' E 017°12'0 0.0
2017-Dec-15 01:00N 40°28' E 017°12'0 0.0
2017-Dec-15 00:30N 40°28' E 017°12'0 0.0
2017-Dec-14 18:27N 40°28' E 017°12'0 0.1
2017-Dec-14 17:57N 40°28' E 017°12'0 0.0
2017-Dec-14 17:27N 40°28' E 017°12'1 1.3
2017-Dec-14 17:00N 40°28' E 017°12'0 0.3
2017-Dec-14 16:22N 40°28' E 017°12'0 0.0
2017-Dec-14 15:58N 40°28' E 017°12'0 0.0
2017-Dec-14 14:52N 40°28' E 017°12'0 0.0
2017-Dec-14 14:28N 40°28' E 017°12'0 0.0
2017-Dec-14 13:52N 40°28' E 017°12'0 0.0
2017-Dec-14 13:28N 40°28' E 017°12'0 0.0
2017-Dec-14 12:46N 40°28' E 017°12'0 0.0
2017-Dec-14 12:04N 40°28' E 017°12'0 0.0
2017-Dec-14 11:58N 40°28' E 017°12'0 0.0
2017-Dec-14 11:10N 40°28' E 017°12'0 0.0
2017-Dec-14 10:28N 40°28' E 017°12'0 0.0
2017-Dec-14 09:58N 40°28' E 017°12'0 0.0
2017-Dec-14 08:34N 40°28' E 017°12'0 0.0
2017-Dec-14 08:28N 40°28' E 017°12'0 0.0
2017-Dec-14 07:52N 40°28' E 017°12'0 0.0
2017-Dec-14 07:22N 40°28' E 017°12'0 0.0
2017-Dec-14 06:58N 40°28' E 017°12'0 0.0
2017-Dec-14 06:22N 40°28' E 017°12'0 0.0
2017-Dec-14 05:58N 40°28' E 017°12'0 0.0
2017-Dec-14 05:28N 40°28' E 017°12'0 0.0
2017-Dec-14 04:52N 40°28' E 017°12'0 0.0
2017-Dec-14 04:28N 40°28' E 017°12'0 0.0
2017-Dec-14 03:58N 40°28' E 017°12'0 0.0
2017-Dec-14 03:28N 40°28' E 017°12'0 0.0
2017-Dec-14 02:58N 40°28' E 017°12'0 0.0
2017-Dec-14 02:28N 40°28' E 017°12'0 0.0
2017-Dec-14 01:58N 40°28' E 017°12'0 0.0
2017-Dec-14 01:28N 40°28' E 017°12'0 0.0
2017-Dec-14 00:58N 40°28' E 017°12'0 0.0
2017-Dec-14 00:28N 40°28' E 017°12'0 0.0
2017-Dec-13 23:52N 40°28' E 017°12'0 0.0
2017-Dec-13 23:28N 40°28' E 017°12'0 0.0
2017-Dec-13 22:52N 40°28' E 017°12'0 0.0
2017-Dec-13 22:28N 40°28' E 017°12'0 0.0
2017-Dec-13 21:58N 40°28' E 017°12'0 0.0
2017-Dec-13 21:22N 40°28' E 017°12'0 0.0
2017-Dec-13 20:58N 40°28' E 017°12'0 0.0
2017-Dec-13 20:28N 40°28' E 017°12'0 0.0
2017-Dec-13 19:58N 40°28' E 017°12'0 0.0
2017-Dec-13 19:28N 40°28' E 017°12'0 0.0
2017-Dec-13 18:58N 40°28' E 017°12'0 0.0
2017-Dec-13 18:28N 40°28' E 017°12'0 0.0
2017-Dec-13 17:58N 40°28' E 017°12'0 0.0
2017-Dec-13 17:28N 40°28' E 017°12'0 0.0
2017-Dec-13 16:58N 40°28' E 017°12'0 0.0
2017-Dec-13 16:28N 40°28' E 017°12'0 0.0
2017-Dec-13 15:58N 40°28' E 017°12'0 0.0
2017-Dec-13 15:28N 40°28' E 017°12'0 0.0
2017-Dec-13 14:58N 40°28' E 017°12'0 0.0
2017-Dec-13 14:28N 40°28' E 017°12'0 0.0
2017-Dec-13 13:58N 40°28' E 017°12'0 0.0
2017-Dec-13 13:28N 40°28' E 017°12'0 0.0
2017-Dec-13 12:58N 40°28' E 017°12'0 0.0
2017-Dec-13 12:28N 40°28' E 017°12'0 0.9
2017-Dec-13 12:00N 40°28' E 017°12'1 2.2
2017-Dec-13 11:27N 40°27' E 017°11'0 0.0
2017-Dec-13 11:00N 40°27' E 017°11'0 0.1
2017-Dec-13 10:27N 40°27' E 017°11'0 0.1
2017-Dec-13 09:58N 40°27' E 017°11'0 0.1
2017-Dec-13 09:30N 40°27' E 017°11'0 0.0
2017-Dec-13 08:57N 40°27' E 017°11'0 0.0
2017-Dec-13 08:27N 40°27' E 017°11'0 0.0
2017-Dec-13 08:00N 40°27' E 017°11'0 0.0
2017-Dec-13 07:30N 40°27' E 017°11'0 0.1
2017-Dec-13 07:00N 40°27' E 017°11'0 0.0
2017-Dec-13 06:30N 40°27' E 017°11'0 0.0
2017-Dec-13 06:00N 40°27' E 017°11'0 0.0
2017-Dec-13 05:30N 40°27' E 017°11'0 0.1
2017-Dec-13 05:00N 40°27' E 017°11'0 0.1
2017-Dec-13 04:31N 40°27' E 017°11'0 0.0
2017-Dec-13 04:00N 40°27' E 017°11'0 0.0
2017-Dec-13 03:30N 40°27' E 017°11'0 0.0
2017-Dec-13 03:00N 40°27' E 017°11'0 0.0
2017-Dec-13 02:30N 40°27' E 017°11'0 0.0
2017-Dec-13 02:00N 40°27' E 017°11'0 0.0
2017-Dec-13 01:30N 40°27' E 017°11'0 0.0
2017-Dec-13 01:00N 40°27' E 017°11'0 0.1
2017-Dec-13 00:30N 40°27' E 017°11'0 0.0
2017-Dec-13 00:00N 40°27' E 017°11'0 0.0
2017-Dec-12 23:30N 40°27' E 017°11'0 0.0
2017-Dec-12 23:00N 40°27' E 017°11'0 0.1
2017-Dec-12 22:30N 40°27' E 017°11'0 0.1
2017-Dec-12 22:00N 40°27' E 017°11'0 0.0
2017-Dec-12 21:30N 40°27' E 017°11'0 0.1
2017-Dec-12 21:00N 40°27' E 017°11'0 0.1
2017-Dec-12 20:30N 40°27' E 017°11'0 0.0
2017-Dec-12 19:57N 40°27' E 017°11'0 0.0
2017-Dec-12 19:30N 40°27' E 017°11'0 0.1
2017-Dec-12 19:00N 40°27' E 017°11'0 0.0
2017-Dec-12 18:30N 40°27' E 017°11'0 0.0
2017-Dec-12 18:00N 40°27' E 017°11'0 0.0
2017-Dec-12 17:30N 40°27' E 017°11'0 0.0
2017-Dec-12 16:57N 40°27' E 017°11'0 0.0
2017-Dec-12 16:27N 40°27' E 017°11'0 0.0
2017-Dec-12 16:00N 40°27' E 017°11'0 0.0
2017-Dec-12 15:27N 40°27' E 017°11'0 0.0
2017-Dec-12 14:57N 40°27' E 017°11'0 0.0
2017-Dec-12 14:30N 40°27' E 017°11'0 0.0
2017-Dec-12 14:00N 40°27' E 017°11'0 0.0
2017-Dec-12 13:30N 40°27' E 017°11'0 0.0
2017-Dec-12 13:00N 40°27' E 017°11'0 0.0
2017-Dec-12 12:31N 40°27' E 017°11'0 0.0
2017-Dec-12 12:00N 40°27' E 017°11'0 0.0
2017-Dec-12 11:31N 40°27' E 017°11'0 0.0
2017-Dec-12 11:00N 40°27' E 017°11'0 0.0
2017-Dec-12 10:27N 40°27' E 017°11'0 0.0
2017-Dec-12 10:00N 40°27' E 017°11'0 0.0
2017-Dec-12 09:28N 40°27' E 017°11'0 0.0
2017-Dec-12 09:00N 40°27' E 017°11'0 0.0
2017-Dec-12 08:30N 40°27' E 017°11'0 0.0
2017-Dec-12 07:57N 40°27' E 017°11'0 0.0
2017-Dec-12 07:27N 40°27' E 017°11'0 0.0
2017-Dec-12 07:00N 40°27' E 017°11'0 0.0
2017-Dec-12 06:30N 40°27' E 017°11'0 0.0
2017-Dec-12 06:00N 40°27' E 017°11'0 0.0
2017-Dec-12 05:30N 40°27' E 017°11'0 0.0
2017-Dec-12 05:00N 40°27' E 017°11'0 0.0
2017-Dec-12 04:30N 40°27' E 017°11'0 0.0
2017-Dec-12 04:00N 40°27' E 017°11'0 0.0
2017-Dec-12 03:30N 40°27' E 017°11'0 0.0
2017-Dec-12 03:00N 40°27' E 017°11'0 0.0
2017-Dec-12 02:30N 40°27' E 017°11'0 0.0
2017-Dec-12 02:00N 40°27' E 017°11'0 0.0
2017-Dec-12 01:30N 40°27' E 017°11'0 0.0
2017-Dec-12 01:00N 40°27' E 017°11'0 0.0
2017-Dec-12 00:30N 40°27' E 017°11'0 0.0
2017-Dec-12 00:00N 40°27' E 017°11'0 0.0
2017-Dec-11 23:30N 40°27' E 017°11'0 0.0
2017-Dec-11 23:00N 40°27' E 017°11'0 0.0
2017-Dec-11 22:30N 40°27' E 017°11'0 0.0
2017-Dec-11 22:00N 40°27' E 017°11'0 0.0
2017-Dec-11 21:30N 40°27' E 017°11'0 0.0
2017-Dec-11 21:00N 40°27' E 017°11'0 0.0
2017-Dec-11 20:30N 40°27' E 017°11'0 0.0
2017-Dec-11 20:00N 40°27' E 017°11'0 0.0
2017-Dec-11 19:30N 40°27' E 017°11'0 0.0
2017-Dec-11 19:00N 40°27' E 017°11'0 0.0
2017-Dec-11 18:30N 40°27' E 017°11'0 0.0
2017-Dec-11 18:00N 40°27' E 017°11'0 0.0
2017-Dec-11 17:30N 40°27' E 017°11'0 0.0
2017-Dec-11 17:00N 40°27' E 017°11'0 0.0
2017-Dec-11 16:30N 40°27' E 017°11'0 0.0
2017-Dec-11 16:00N 40°27' E 017°11'0 0.0
2017-Dec-11 15:30N 40°27' E 017°11'0 0.0
2017-Dec-11 15:00N 40°27' E 017°11'0 0.0
2017-Dec-11 14:30N 40°27' E 017°11'0 0.0
2017-Dec-11 14:00N 40°27' E 017°11'0 0.0
2017-Dec-11 13:30N 40°27' E 017°11'0 0.0
2017-Dec-11 13:00N 40°27' E 017°11'0 0.0
2017-Dec-11 12:30N 40°27' E 017°11'0 0.0
2017-Dec-11 12:00N 40°27' E 017°11'0 0.0
2017-Dec-11 11:30N 40°27' E 017°11'0 0.0
2017-Dec-11 11:00N 40°27' E 017°11'0 0.0
2017-Dec-11 10:30N 40°27' E 017°11'0 0.0
2017-Dec-11 10:00N 40°27' E 017°11'0 0.0
2017-Dec-11 09:30N 40°27' E 017°11'0 0.0
2017-Dec-11 09:00N 40°27' E 017°11'0 0.0
2017-Dec-11 08:30N 40°27' E 017°11'0 0.0
2017-Dec-11 08:00N 40°27' E 017°11'0 0.0
2017-Dec-11 07:30N 40°27' E 017°11'0 0.0
2017-Dec-11 06:57N 40°27' E 017°11'0 0.0
2017-Dec-11 06:30N 40°27' E 017°11'0 0.0
2017-Dec-11 06:00N 40°27' E 017°11'0 0.0
2017-Dec-11 05:30N 40°27' E 017°11'0 0.0
2017-Dec-11 05:00N 40°27' E 017°11'0 0.0
2017-Dec-11 04:30N 40°27' E 017°11'0 0.0
2017-Dec-11 04:00N 40°27' E 017°11'0 0.0
2017-Dec-11 03:30N 40°27' E 017°11'0 0.0
2017-Dec-11 03:00N 40°27' E 017°11'0 0.0
2017-Dec-11 02:30N 40°27' E 017°11'0 0.0
2017-Dec-11 02:00N 40°27' E 017°11'0 0.0
2017-Dec-11 01:30N 40°27' E 017°11'0 0.0
2017-Dec-11 01:00N 40°27' E 017°11'0 0.0
2017-Dec-11 00:30N 40°27' E 017°11'0 0.0
2017-Dec-11 00:00N 40°27' E 017°11'0 0.0
2017-Dec-10 23:30N 40°27' E 017°11'0 0.0
2017-Dec-10 23:00N 40°27' E 017°11'0 0.0
2017-Dec-10 22:30N 40°27' E 017°11'0 0.0
2017-Dec-10 22:00N 40°27' E 017°11'0 0.0
2017-Dec-10 21:30N 40°27' E 017°11'0 0.0
2017-Dec-10 21:00N 40°27' E 017°11'0 0.0
2017-Dec-10 20:30N 40°27' E 017°11'0 0.0
2017-Dec-10 20:00N 40°27' E 017°11'0 0.0
2017-Dec-10 19:30N 40°27' E 017°11'0 0.0
2017-Dec-10 18:58N 40°27' E 017°11'0 0.0
2017-Dec-10 18:27N 40°27' E 017°11'0 0.1
2017-Dec-10 18:00N 40°27' E 017°11'0 0.1
2017-Dec-10 17:30N 40°27' E 017°11'0 0.0
2017-Dec-10 17:00N 40°27' E 017°11'0 0.0
2017-Dec-10 16:30N 40°27' E 017°11'0 0.1
2017-Dec-10 16:00N 40°27' E 017°11'0 0.0
2017-Dec-10 15:30N 40°27' E 017°11'0 0.0
2017-Dec-10 14:57N 40°27' E 017°11'0 0.0
2017-Dec-10 14:30N 40°27' E 017°11'0 0.0
2017-Dec-10 14:01N 40°27' E 017°11'0 0.0
2017-Dec-10 13:28N 40°27' E 017°11'0 0.1
2017-Dec-10 13:00N 40°27' E 017°11'0 0.0
2017-Dec-10 12:30N 40°27' E 017°11'0 0.0
2017-Dec-10 12:00N 40°27' E 017°11'0 0.0
2017-Dec-10 11:27N 40°27' E 017°11'0 0.0
2017-Dec-10 11:00N 40°27' E 017°11'0 0.1
2017-Dec-10 10:27N 40°27' E 017°11'0 0.0
2017-Dec-10 09:57N 40°27' E 017°11'0 0.1
2017-Dec-10 09:30N 40°27' E 017°11'0 0.0
2017-Dec-10 08:57N 40°27' E 017°11'0 0.0
2017-Dec-10 08:27N 40°27' E 017°11'0 0.0
2017-Dec-10 07:57N 40°27' E 017°11'0 0.0
2017-Dec-10 07:30N 40°27' E 017°11'0 0.0
2017-Dec-10 07:00N 40°27' E 017°11'0 0.0
2017-Dec-10 06:30N 40°27' E 017°11'0 0.0
2017-Dec-10 06:00N 40°27' E 017°11'0 0.0
2017-Dec-10 05:30N 40°27' E 017°11'0 0.1
2017-Dec-10 05:00N 40°27' E 017°11'0 0.0
2017-Dec-10 04:30N 40°27' E 017°11'0 0.0
2017-Dec-10 04:00N 40°27' E 017°11'0 0.0
2017-Dec-10 03:30N 40°27' E 017°11'0 0.0
2017-Dec-10 03:00N 40°27' E 017°11'0 0.1
2017-Dec-10 02:30N 40°27' E 017°11'0 0.1
2017-Dec-10 02:00N 40°27' E 017°11'0 0.0
2017-Dec-10 01:30N 40°27' E 017°11'0 0.0
2017-Dec-10 01:00N 40°27' E 017°11'0 0.0
2017-Dec-10 00:30N 40°27' E 017°11'0 0.0
2017-Dec-10 00:00N 40°27' E 017°11'0 0.0
2017-Dec-09 23:30N 40°27' E 017°11'0 0.0
2017-Dec-09 23:00N 40°27' E 017°11'0 0.0
2017-Dec-09 22:27N 40°27' E 017°11'0 0.0
2017-Dec-09 22:00N 40°27' E 017°11'0 0.0
2017-Dec-09 21:30N 40°27' E 017°11'0 0.0
2017-Dec-09 21:00N 40°27' E 017°11'0 0.1
2017-Dec-09 20:30N 40°27' E 017°11'0 0.1
2017-Dec-09 20:00N 40°27' E 017°11'0 0.0
2017-Dec-09 19:30N 40°27' E 017°11'0 0.0
2017-Dec-09 19:00N 40°27' E 017°11'0 0.0
2017-Dec-09 18:30N 40°27' E 017°11'0 0.1
2017-Dec-09 18:00N 40°27' E 017°11'0 0.0
2017-Dec-09 17:27N 40°27' E 017°11'0 0.2
2017-Dec-09 16:57N 40°27' E 017°11'0 0.1
2017-Dec-09 16:30N 40°27' E 017°11'0 0.0
2017-Dec-09 16:00N 40°27' E 017°11'0 0.0
2017-Dec-09 15:30N 40°27' E 017°11'0 0.0
2017-Dec-09 15:00N 40°27' E 017°11'0 0.0
2017-Dec-09 14:30N 40°27' E 017°11'0 0.0
2017-Dec-09 14:00N 40°27' E 017°11'0 0.0
2017-Dec-09 13:30N 40°27' E 017°11'0 0.0
2017-Dec-09 13:00N 40°27' E 017°11'0 0.0
2017-Dec-09 12:30N 40°27' E 017°11'0 0.0
2017-Dec-09 12:00N 40°27' E 017°11'0 0.0
2017-Dec-09 11:30N 40°27' E 017°11'0 0.0
2017-Dec-09 11:00N 40°27' E 017°11'0 0.0
2017-Dec-09 10:30N 40°27' E 017°11'0 0.0
2017-Dec-09 09:57N 40°27' E 017°11'0 0.0
2017-Dec-09 09:30N 40°27' E 017°11'0 0.0
2017-Dec-09 08:57N 40°27' E 017°11'0 0.0
2017-Dec-09 08:27N 40°27' E 017°11'0 0.0
2017-Dec-09 08:00N 40°27' E 017°11'0 0.0
2017-Dec-09 07:30N 40°27' E 017°11'0 0.0
2017-Dec-09 07:00N 40°27' E 017°11'0 0.0
2017-Dec-09 06:31N 40°27' E 017°11'0 0.0
2017-Dec-09 06:00N 40°27' E 017°11'0 0.0
2017-Dec-09 05:30N 40°27' E 017°11'0 0.1
2017-Dec-09 05:00N 40°27' E 017°11'0 0.1
2017-Dec-09 04:30N 40°27' E 017°11'0 0.0
2017-Dec-09 04:00N 40°27' E 017°11'0 0.0
2017-Dec-09 03:30N 40°27' E 017°11'0 0.0
2017-Dec-09 03:00N 40°27' E 017°11'0 0.0
2017-Dec-09 02:30N 40°27' E 017°11'0 0.0
2017-Dec-09 02:00N 40°27' E 017°11'0 0.0
2017-Dec-09 01:30N 40°27' E 017°11'0 0.0
2017-Dec-09 01:00N 40°27' E 017°11'0 0.0
2017-Dec-09 00:30N 40°27' E 017°11'0 0.0
2017-Dec-09 00:00N 40°27' E 017°11'0 0.0
2017-Dec-08 23:30N 40°27' E 017°11'0 0.2
2017-Dec-08 23:01N 40°27' E 017°11'2 2.8
2017-Dec-08 22:25N 40°28' E 017°12'0 0.0
2017-Dec-08 21:55N 40°28' E 017°12'0 0.0
2017-Dec-08 21:25N 40°28' E 017°12'0 0.0
2017-Dec-08 20:49N 40°28' E 017°12'0 0.0
2017-Dec-08 20:25N 40°28' E 017°12'0 0.0
2017-Dec-08 19:55N 40°28' E 017°12'0 0.0
2017-Dec-08 19:25N 40°28' E 017°12'0 0.0
2017-Dec-08 18:55N 40°28' E 017°12'0 0.0
2017-Dec-08 16:01N 40°28' E 017°12'0 0.0
2017-Dec-08 11:19N 40°28' E 017°12'0 0.0
2017-Dec-08 10:55N 40°28' E 017°12'0 0.0
2017-Dec-08 10:25N 40°28' E 017°12'0 0.0
2017-Dec-08 09:49N 40°28' E 017°12'0 0.0
2017-Dec-08 09:31N 40°28' E 017°12'1 1.4
2017-Dec-08 09:01N 40°28' E 017°12'0 0.4
2017-Dec-08 08:29N 40°28' E 017°12'0 0.0
2017-Dec-08 07:59N 40°28' E 017°12'0 0.1
2017-Dec-08 07:29N 40°28' E 017°12'0 0.0
2017-Dec-08 06:56N 40°28' E 017°12'0 0.1
2017-Dec-08 06:29N 40°28' E 017°12'0 0.0
2017-Dec-08 05:59N 40°28' E 017°12'0 0.0
2017-Dec-08 05:29N 40°28' E 017°12'0 0.0
2017-Dec-08 04:59N 40°28' E 017°12'0 0.0
2017-Dec-08 04:29N 40°28' E 017°12'0 0.1
2017-Dec-08 03:59N 40°28' E 017°12'0 0.0
2017-Dec-08 03:29N 40°28' E 017°12'0 0.0
2017-Dec-08 02:59N 40°28' E 017°12'0 0.1
2017-Dec-08 02:29N 40°28' E 017°12'0 0.0
2017-Dec-08 01:59N 40°28' E 017°12'0 0.0
2017-Dec-08 01:23N 40°28' E 017°12'0 0.0
2017-Dec-08 00:59N 40°28' E 017°12'0 0.0
2017-Dec-08 00:29N 40°28' E 017°12'0 0.0
2017-Dec-07 23:59N 40°28' E 017°12'0 0.0
2017-Dec-07 23:29N 40°28' E 017°12'0 0.1
2017-Dec-07 22:59N 40°28' E 017°12'0 0.0
2017-Dec-07 22:29N 40°28' E 017°12'0 0.0
2017-Dec-07 21:59N 40°28' E 017°12'0 0.0
2017-Dec-07 21:29N 40°28' E 017°12'0 0.0
2017-Dec-07 20:59N 40°28' E 017°12'0 0.1
2017-Dec-07 20:29N 40°28' E 017°12'0 0.0
2017-Dec-07 19:59N 40°28' E 017°12'0 0.0
2017-Dec-07 19:29N 40°28' E 017°12'0 0.0
2017-Dec-07 18:59N 40°28' E 017°12'0 0.0
2017-Dec-07 18:29N 40°28' E 017°12'0 0.0
2017-Dec-07 17:59N 40°28' E 017°12'0 0.0
2017-Dec-07 17:17N 40°28' E 017°12'0 0.0
2017-Dec-07 16:59N 40°28' E 017°12'0 0.1
2017-Dec-07 16:29N 40°28' E 017°12'0 0.0
2017-Dec-07 15:59N 40°28' E 017°12'0 0.0
2017-Dec-07 15:29N 40°28' E 017°12'0 0.1
2017-Dec-07 14:59N 40°28' E 017°12'0 0.1
2017-Dec-07 14:29N 40°28' E 017°12'0 0.0
2017-Dec-07 13:59N 40°28' E 017°12'0 0.0
2017-Dec-07 13:29N 40°28' E 017°12'0 0.0
2017-Dec-07 12:59N 40°28' E 017°12'0 0.0
2017-Dec-07 12:29N 40°28' E 017°12'0 0.0
2017-Dec-07 11:59N 40°28' E 017°12'0 0.0
2017-Dec-07 11:29N 40°28' E 017°12'0 0.1
2017-Dec-07 10:59N 40°28' E 017°12'0 0.1
2017-Dec-07 10:29N 40°28' E 017°12'0 0.0
2017-Dec-07 09:59N 40°28' E 017°12'0 0.1
2017-Dec-07 09:29N 40°28' E 017°12'0 0.1
2017-Dec-07 08:59N 40°28' E 017°12'0 0.1
2017-Dec-07 08:29N 40°28' E 017°12'0 0.1
2017-Dec-07 07:59N 40°28' E 017°12'0 0.0
2017-Dec-07 07:29N 40°28' E 017°12'0 0.1
2017-Dec-07 06:59N 40°28' E 017°12'0 0.0
2017-Dec-07 06:29N 40°28' E 017°12'0 0.0
2017-Dec-07 05:59N 40°28' E 017°12'0 0.0
2017-Dec-07 05:29N 40°28' E 017°12'0 0.1
2017-Dec-07 04:59N 40°28' E 017°12'0 0.0
2017-Dec-07 04:29N 40°28' E 017°12'0 0.1
2017-Dec-07 03:59N 40°28' E 017°12'0 0.1
2017-Dec-07 03:29N 40°28' E 017°12'0 0.0
2017-Dec-07 02:59N 40°28' E 017°12'0 0.0
2017-Dec-07 02:29N 40°28' E 017°12'0 0.1
2017-Dec-07 01:59N 40°28' E 017°12'0 0.0
2017-Dec-07 01:29N 40°28' E 017°12'0 0.1
2017-Dec-07 00:59N 40°28' E 017°12'0 0.0
2017-Dec-07 00:29N 40°28' E 017°12'0 0.1
2017-Dec-06 23:59N 40°28' E 017°12'0 0.0
2017-Dec-06 23:29N 40°28' E 017°12'0 0.0
2017-Dec-06 22:59N 40°28' E 017°12'0 0.1
2017-Dec-06 22:29N 40°28' E 017°12'0 0.0
2017-Dec-06 21:59N 40°28' E 017°12'0 0.0
2017-Dec-06 21:29N 40°28' E 017°12'0 0.0
2017-Dec-06 20:59N 40°28' E 017°12'  

Dump ship's entire track history